Time;durP1;ratioP1;P1;durP2;ratioP2;P2;SDS_P1;SDS_P2;PMS_P1;PMS_P2;Temp;Humidity;BMP_temperature;BMP_pressure;BME280_temperature;BME280_humidity;BME280_pressure;Samples;Min_cycle;Max_cycle;Signal;HPM_P1;HPM_P2
2022/09/27 00:02:22;;;;;;;3.27;2.20;;;13.70;99.90;;;;;;5089682;28;20458;-72
2022/09/27 00:04:50;;;;;;;2.20;2.00;;;13.70;99.90;;;;;;5089296;28;20485;-72
2022/09/27 00:07:16;;;;;;;2.63;2.20;;;13.70;99.90;;;;;;5089017;28;20549;-72
2022/09/27 00:09:43;;;;;;;2.77;2.30;;;13.60;99.90;;;;;;5089854;28;20957;-72
2022/09/27 00:12:12;;;;;;;5.23;2.70;;;13.60;99.90;;;;;;5088765;28;20450;-72
2022/09/27 00:14:39;;;;;;;3.27;2.30;;;13.60;99.90;;;;;;5087558;28;20621;-73
2022/09/27 00:17:06;;;;;;;2.40;1.80;;;13.60;99.90;;;;;;5086725;28;20454;-73
2022/09/27 00:19:33;;;;;;;3.17;2.10;;;13.60;99.90;;;;;;5089307;28;20484;-72
2022/09/27 00:22:00;;;;;;;3.23;2.40;;;13.60;99.90;;;;;;5085906;28;20484;-73
2022/09/27 00:24:27;;;;;;;2.20;2.00;;;13.50;99.90;;;;;;5088931;28;20455;-73
2022/09/27 00:26:54;;;;;;;4.47;2.67;;;13.50;99.90;;;;;;5089152;28;20450;-76
2022/09/27 00:29:23;;;;;;;2.10;1.90;;;13.50;99.90;;;;;;5089460;28;20450;-73
2022/09/27 00:31:50;;;;;;;3.07;2.37;;;13.50;99.90;;;;;;5090149;28;20461;-73
2022/09/27 00:34:20;;;;;;;2.30;2.10;;;13.50;99.90;;;;;;5089598;28;20474;-73
2022/09/27 00:36:47;;;;;;;3.70;2.23;;;13.50;99.90;;;;;;5089133;28;20441;-73
2022/09/27 00:39:15;;;;;;;2.20;1.83;;;13.50;99.90;;;;;;5089168;28;20545;-73
2022/09/27 00:41:42;;;;;;;4.23;2.27;;;13.50;99.90;;;;;;5088903;28;20454;-73
2022/09/27 00:44:39;;;;;;;2.63;2.10;;;13.50;99.90;;;;;;5088920;28;20489;-73
2022/09/27 00:47:14;;;;;;;2.50;2.30;;;13.50;99.90;;;;;;5085587;28;20454;-73
2022/09/27 00:49:44;;;;;;;3.10;1.97;;;13.40;99.90;;;;;;5087148;28;20445;-73
2022/09/27 00:52:16;;;;;;;2.63;2.27;;;13.40;99.90;;;;;;5088968;28;20962;-73
2022/09/27 00:54:49;;;;;;;2.90;2.27;;;13.40;99.90;;;;;;5087029;28;20493;-73
2022/09/27 00:57:16;;;;;;;2.57;1.83;;;13.40;99.90;;;;;;5088464;28;20458;-72
2022/09/27 00:59:47;;;;;;;2.63;2.37;;;13.40;99.90;;;;;;5086789;28;20454;-73
2022/09/27 01:02:16;;;;;;;3.20;2.20;;;13.40;99.90;;;;;;5086422;28;20439;-73
2022/09/27 01:04:46;;;;;;;4.00;2.30;;;13.40;99.90;;;;;;5084636;28;20838;-72
2022/09/27 01:07:13;;;;;;;2.70;1.70;;;13.40;99.90;;;;;;5085150;28;20446;-72
2022/09/27 01:09:40;;;;;;;2.47;2.10;;;13.40;99.90;;;;;;5085419;28;20469;-72
2022/09/27 01:12:17;;;;;;;2.77;2.10;;;13.30;99.90;;;;;;5077237;28;20458;-72
2022/09/27 01:15:00;;;;;;;2.70;1.87;;;13.30;99.90;;;;;;5074562;28;20515;-73
2022/09/27 01:17:40;;;;;;;3.30;2.30;;;13.40;99.90;;;;;;5080218;28;20481;-74
2022/09/27 01:20:44;;;;;;;4.90;2.50;;;13.40;99.90;;;;;;5090763;28;20499;-74
2022/09/27 01:23:33;;;;;;;2.67;2.37;;;13.30;99.90;;;;;;5083705;28;20820;-73
2022/09/27 01:26:13;;;;;;;2.80;2.10;;;13.30;99.90;;;;;;5077294;28;20434;-72
2022/09/27 01:28:51;;;;;;;3.20;2.50;;;13.30;99.90;;;;;;5075113;28;20803;-73
2022/09/27 01:31:24;;;;;;;3.10;2.60;;;13.30;99.90;;;;;;5075041;28;20443;-73
2022/09/27 01:34:02;;;;;;;2.40;2.20;;;13.30;99.90;;;;;;5075397;28;20491;-73
2022/09/27 01:36:38;;;;;;;3.63;2.70;;;13.30;99.90;;;;;;5074746;28;20489;-73
2022/09/27 01:39:18;;;;;;;2.80;2.43;;;13.30;99.90;;;;;;5074610;28;20898;-73
2022/09/27 01:41:54;;;;;;;3.33;2.40;;;13.30;99.90;;;;;;5074658;28;20478;-73
2022/09/27 01:44:28;;;;;;;3.00;2.10;;;13.30;99.90;;;;;;5074687;28;20438;-73
2022/09/27 01:47:01;;;;;;;2.63;2.20;;;13.40;99.90;;;;;;5074891;28;20442;-72
2022/09/27 01:49:33;;;;;;;2.73;2.07;;;13.30;99.90;;;;;;5074565;28;20438;-72
2022/09/27 01:52:04;;;;;;;2.60;2.40;;;13.30;99.90;;;;;;5074791;28;20770;-72
2022/09/27 01:54:37;;;;;;;3.33;2.30;;;13.30;99.90;;;;;;5074504;28;20467;-72
2022/09/27 01:57:09;;;;;;;2.83;2.50;;;13.30;99.90;;;;;;5074717;28;20438;-72
2022/09/27 01:59:42;;;;;;;3.30;2.27;;;13.30;99.90;;;;;;5074381;28;20537;-72
2022/09/27 02:02:12;;;;;;;2.10;1.90;;;13.40;99.90;;;;;;5074339;28;20492;-72
2022/09/27 02:04:42;;;;;;;5.27;1.90;;;13.40;99.90;;;;;;5073870;28;20470;-72
2022/09/27 02:07:15;;;;;;;2.10;1.90;;;13.40;99.90;;;;;;5074565;28;20807;-72
2022/09/27 02:09:48;;;;;;;2.20;2.00;;;13.40;99.90;;;;;;5074693;28;20502;-72
2022/09/27 02:12:20;;;;;;;4.03;2.07;;;13.40;99.90;;;;;;5075495;28;20473;-72
2022/09/27 02:14:53;;;;;;;2.63;2.20;;;13.40;99.90;;;;;;5075292;28;20523;-72
2022/09/27 02:17:31;;;;;;;2.33;2.07;;;13.50;99.90;;;;;;5075088;28;20787;-72
2022/09/27 02:20:06;;;;;;;2.33;2.13;;;13.50;99.90;;;;;;5077192;28;20883;-72
2022/09/27 02:22:36;;;;;;;2.70;2.00;;;13.50;99.90;;;;;;5077761;28;20441;-72
2022/09/27 02:25:21;;;;;;;2.30;1.97;;;13.50;99.90;;;;;;5075690;28;20771;-72
2022/09/27 02:27:57;;;;;;;3.00;2.00;;;13.50;99.90;;;;;;5077976;28;20435;-72
2022/09/27 02:30:24;;;;;;;2.47;2.00;;;13.60;99.90;;;;;;5077861;28;20446;-72
2022/09/27 02:32:53;;;;;;;2.10;1.90;;;13.60;99.90;;;;;;5078361;28;20454;-72
2022/09/27 02:35:24;;;;;;;2.30;1.80;;;13.60;99.90;;;;;;5077983;28;20510;-72
2022/09/27 02:37:51;;;;;;;2.37;2.00;;;13.60;99.90;;;;;;5078153;28;20925;-72
2022/09/27 02:40:18;;;;;;;2.87;2.50;;;13.60;99.90;;;;;;5077836;28;20511;-72
2022/09/27 02:42:47;;;;;;;2.17;1.97;;;13.60;99.90;;;;;;5077720;28;20477;-72
2022/09/27 02:45:15;;;;;;;1.93;1.73;;;13.60;99.90;;;;;;5077573;28;20450;-72
2022/09/27 02:48:04;;;;;;;2.00;1.80;;;13.60;99.90;;;;;;5069613;28;20493;-72
2022/09/27 02:50:52;;;;;;;2.60;1.73;;;13.60;99.90;;;;;;5077666;28;20470;-72
2022/09/27 02:53:32;;;;;;;3.90;1.63;;;13.70;99.90;;;;;;5077503;28;20449;-72
2022/09/27 02:56:03;;;;;;;1.93;1.77;;;13.60;99.90;;;;;;5077126;28;20462;-72
2022/09/27 02:58:43;;;;;;;4.17;2.00;;;13.70;99.90;;;;;;5077271;28;20953;-72
2022/09/27 03:01:18;;;;;;;2.20;1.83;;;13.60;99.90;;;;;;5077053;28;20438;-72
2022/09/27 03:03:51;;;;;;;3.33;1.70;;;13.60;99.90;;;;;;5069222;28;20485;-71
2022/09/27 03:06:20;;;;;;;2.00;1.57;;;13.60;99.90;;;;;;5077325;28;20790;-71
2022/09/27 03:08:48;;;;;;;2.27;1.77;;;13.70;99.90;;;;;;5087502;28;20457;-72
2022/09/27 03:11:15;;;;;;;4.47;1.80;;;13.70;99.90;;;;;;5097595;28;20553;-72
2022/09/27 03:13:43;;;;;;;2.17;1.80;;;13.70;99.90;;;;;;5097842;28;20503;-72
2022/09/27 03:16:10;;;;;;;3.20;1.70;;;13.70;99.90;;;;;;5100080;28;20481;-72
2022/09/27 03:18:37;;;;;;;4.27;2.10;;;13.70;99.90;;;;;;5097742;28;20489;-72
2022/09/27 03:21:06;;;;;;;3.90;2.17;;;13.70;99.90;;;;;;5097243;28;20975;-72
2022/09/27 03:23:33;;;;;;;2.20;1.80;;;13.70;99.90;;;;;;5104706;28;20458;-73
2022/09/27 03:26:00;;;;;;;3.03;2.03;;;13.70;99.90;;;;;;5115105;28;20453;-73
2022/09/27 03:28:28;;;;;;;2.20;2.00;;;13.70;99.90;;;;;;5113972;28;20453;-74
2022/09/27 03:30:55;;;;;;;2.60;1.90;;;13.70;99.90;;;;;;5115421;28;20479;-73
2022/09/27 03:33:22;;;;;;;5.70;2.10;;;13.70;99.90;;;;;;5115661;28;20467;-72
2022/09/27 03:35:49;;;;;;;2.47;1.93;;;13.70;99.90;;;;;;5114965;28;20509;-72
2022/09/27 03:38:18;;;;;;;1.83;1.73;;;13.60;99.90;;;;;;5114987;28;20502;-73
2022/09/27 03:40:45;;;;;;;2.30;2.00;;;13.70;99.90;;;;;;5115248;28;20453;-72
2022/09/27 03:43:12;;;;;;;3.80;2.07;;;13.70;99.90;;;;;;5114495;28;20445;-73
2022/09/27 03:45:39;;;;;;;8.20;2.10;;;13.60;99.90;;;;;;5114640;28;20913;-72
2022/09/27 03:48:06;;;;;;;3.83;2.50;;;13.70;99.90;;;;;;5112624;28;20453;-73
2022/09/27 03:50:33;;;;;;;2.63;2.43;;;13.70;99.90;;;;;;5114245;28;20511;-73
2022/09/27 03:53:00;;;;;;;2.73;2.47;;;13.70;99.90;;;;;;5116086;28;20517;-72
2022/09/27 03:55:28;;;;;;;3.20;2.20;;;13.70;99.90;;;;;;5113557;28;20506;-75
2022/09/27 03:57:55;;;;;;;3.03;2.23;;;13.60;99.90;;;;;;5112564;28;20484;-74
2022/09/27 04:00:23;;;;;;;2.40;2.20;;;13.50;99.90;;;;;;5113411;28;20519;-73
2022/09/27 04:02:50;;;;;;;2.83;2.30;;;13.50;99.90;;;;;;5112444;28;20460;-73
2022/09/27 04:05:17;;;;;;;4.30;2.60;;;13.50;99.90;;;;;;5109769;28;20493;-73
2022/09/27 04:07:48;;;;;;;2.50;2.30;;;13.40;99.90;;;;;;5111296;28;20456;-74
2022/09/27 04:10:16;;;;;;;2.87;2.33;;;13.40;99.90;;;;;;5111674;28;20502;-73
2022/09/27 04:12:45;;;;;;;5.00;2.67;;;13.40;99.90;;;;;;5108941;28;20790;-74
2022/09/27 04:15:12;;;;;;;2.83;2.60;;;13.30;99.90;;;;;;5107475;28;20812;-72
2022/09/27 04:17:42;;;;;;;3.13;2.20;;;13.30;99.90;;;;;;5106825;28;20446;-72
2022/09/27 04:20:09;;;;;;;2.57;2.37;;;13.20;99.90;;;;;;5106427;28;20449;-73
2022/09/27 04:22:40;;;;;;;2.83;2.63;;;13.20;99.90;;;;;;5104666;28;20510;-72
2022/09/27 04:25:08;;;;;;;2.50;2.30;;;13.20;99.90;;;;;;5103708;28;20438;-72
2022/09/27 04:27:35;;;;;;;3.30;2.57;;;13.20;99.90;;;;;;5101717;28;20909;-72
2022/09/27 04:30:05;;;;;;;3.20;2.53;;;13.20;99.90;;;;;;5096300;28;20495;-71
2022/09/27 04:32:32;;;;;;;2.63;2.00;;;13.20;99.90;;;;;;5095823;28;20464;-72
2022/09/27 04:37:44;;;;;;;3.47;2.37;;;13.10;99.90;;;;;;5095774;28;20947;-71
2022/09/27 04:40:10;;;;;;;3.57;3.13;;;13.10;99.90;;;;;;5096003;28;20818;-71
2022/09/27 04:42:38;;;;;;;3.50;2.23;;;13.20;99.90;;;;;;5095883;28;20493;-71
2022/09/27 04:45:07;;;;;;;3.03;2.40;;;13.10;99.90;;;;;;5095967;28;20526;-72
2022/09/27 04:47:34;;;;;;;2.63;2.43;;;13.20;99.90;;;;;;5094649;28;20945;-72
2022/09/27 04:50:01;;;;;;;2.17;1.97;;;13.10;99.90;;;;;;5094811;28;20485;-72
2022/09/27 04:52:28;;;;;;;4.30;2.77;;;13.00;99.90;;;;;;5095501;28;20453;-72
2022/09/27 04:54:55;;;;;;;2.77;2.47;;;12.90;99.90;;;;;;5095458;28;20453;-71
2022/09/27 04:57:21;;;;;;;2.30;2.10;;;12.90;99.90;;;;;;5095147;28;20488;-72
2022/09/27 04:59:50;;;;;;;2.37;2.00;;;12.90;99.90;;;;;;5095468;28;20831;-72
2022/09/27 05:02:18;;;;;;;3.50;2.10;;;12.80;99.90;;;;;;5095360;28;20796;-72
2022/09/27 05:04:45;;;;;;;3.50;3.10;;;12.80;99.90;;;;;;5095497;28;20807;-72
2022/09/27 05:07:12;;;;;;;2.57;2.37;;;12.70;99.90;;;;;;5095784;28;20546;-72
2022/09/27 05:09:39;;;;;;;4.57;2.53;;;12.70;99.90;;;;;;5096025;28;20518;-72
2022/09/27 05:12:07;;;;;;;4.17;2.77;;;12.70;99.90;;;;;;5095337;28;20449;-72
2022/09/27 05:14:34;;;;;;;2.87;2.30;;;12.70;99.90;;;;;;5095289;28;20465;-72
2022/09/27 05:17:01;;;;;;;2.73;2.10;;;12.70;99.90;;;;;;5095108;28;20509;-72
2022/09/27 05:19:29;;;;;;;2.90;2.70;;;12.60;99.90;;;;;;5095045;28;20481;-72
2022/09/27 05:21:57;;;;;;;2.50;2.30;;;12.60;99.90;;;;;;5095238;28;20453;-70
2022/09/27 05:24:24;;;;;;;5.67;3.47;;;12.60;99.90;;;;;;5103381;28;20787;-72
2022/09/27 05:26:51;;;;;;;6.10;4.47;;;12.50;99.90;;;;;;5104797;28;20787;-72
2022/09/27 05:29:18;;;;;;;3.20;2.90;;;12.50;99.90;;;;;;5106329;28;20473;-72
2022/09/27 05:31:46;;;;;;;2.63;2.43;;;12.50;99.90;;;;;;5105431;28;20457;-73
2022/09/27 05:34:13;;;;;;;4.00;2.40;;;12.40;99.90;;;;;;5105908;28;20962;-72
2022/09/27 05:36:41;;;;;;;3.00;2.40;;;12.50;99.90;;;;;;5103562;28;20545;-72
2022/09/27 05:39:08;;;;;;;4.70;2.77;;;12.40;99.90;;;;;;5104238;28;20453;-71
2022/09/27 05:41:35;;;;;;;3.00;2.80;;;12.40;99.90;;;;;;5103011;28;20783;-77
2022/09/27 05:44:02;;;;;;;3.50;2.73;;;12.30;99.90;;;;;;5100025;28;20506;-73
2022/09/27 05:46:29;;;;;;;2.60;2.40;;;12.30;99.90;;;;;;5100646;28;20481;-72
2022/09/27 05:48:56;;;;;;;2.90;2.43;;;12.30;99.90;;;;;;5098273;28;20489;-72
2022/09/27 05:51:23;;;;;;;3.90;3.00;;;12.20;99.90;;;;;;5103606;28;20797;-73
2022/09/27 05:53:51;;;;;;;4.90;3.00;;;12.20;99.90;;;;;;5095020;28;20971;-73
2022/09/27 05:56:18;;;;;;;3.00;2.70;;;12.20;99.90;;;;;;5094825;28;20505;-73
2022/09/27 05:58:46;;;;;;;4.20;3.10;;;12.30;99.90;;;;;;5094899;28;20526;-74
2022/09/27 06:01:12;;;;;;;3.03;2.73;;;12.30;99.90;;;;;;5096862;28;20465;-73
2022/09/27 06:03:40;;;;;;;5.90;2.80;;;12.30;99.90;;;;;;5098954;28;20480;-74
2022/09/27 06:06:07;;;;;;;2.90;2.70;;;12.30;99.90;;;;;;5099336;28;20914;-74
2022/09/27 06:08:34;;;;;;;3.00;2.80;;;12.30;99.90;;;;;;5099333;28;20772;-74
2022/09/27 06:11:04;;;;;;;2.57;2.37;;;12.20;99.90;;;;;;5098222;28;20500;-74
2022/09/27 06:13:33;;;;;;;3.10;2.80;;;12.20;99.90;;;;;;5098536;28;20926;-74
2022/09/27 06:16:00;;;;;;;4.10;2.80;;;12.20;99.90;;;;;;5098608;28;20481;-74
2022/09/27 06:18:27;;;;;;;4.50;3.00;;;12.10;99.90;;;;;;5099261;28;20457;-73
2022/09/27 06:20:53;;;;;;;6.13;4.40;;;12.20;99.90;;;;;;5101228;28;20465;-72
2022/09/27 06:23:22;;;;;;;3.20;2.90;;;12.20;99.90;;;;;;5102213;28;20896;-73
2022/09/27 06:25:50;;;;;;;3.00;2.70;;;12.20;99.90;;;;;;5102966;28;20506;-73
2022/09/27 06:28:19;;;;;;;4.07;2.77;;;12.30;99.90;;;;;;5113574;28;20452;-74
2022/09/27 06:30:48;;;;;;;6.10;3.63;;;12.30;99.90;;;;;;5112952;28;20475;-75
2022/09/27 06:33:16;;;;;;;4.50;2.97;;;12.20;99.90;;;;;;5116314;28;20457;-74
2022/09/27 06:35:45;;;;;;;6.57;3.40;;;12.20;99.90;;;;;;5112790;28;20503;-73
2022/09/27 06:38:14;;;;;;;3.30;2.80;;;12.20;99.90;;;;;;5113512;28;20449;-73
2022/09/27 06:40:44;;;;;;;3.33;3.03;;;12.20;99.90;;;;;;5113617;28;20484;-74
2022/09/27 06:43:12;;;;;;;4.40;3.40;;;12.20;99.90;;;;;;5111501;28;20830;-74
2022/09/27 06:45:41;;;;;;;6.40;2.70;;;12.30;99.90;;;;;;5114693;28;20479;-74
2022/09/27 06:48:11;;;;;;;3.30;2.77;;;12.20;99.90;;;;;;5110609;28;20457;-73
2022/09/27 06:50:42;;;;;;;4.50;3.30;;;12.20;99.90;;;;;;5109036;28;20453;-73
2022/09/27 06:53:11;;;;;;;7.40;3.27;;;12.20;99.90;;;;;;5105631;28;20524;-72
2022/09/27 06:55:39;;;;;;;3.00;2.73;;;12.20;99.90;;;;;;5103501;28;20457;-73
2022/09/27 07:00:53;;;;;;;3.53;2.90;;;12.20;99.90;;;;;;5103055;28;20483;-73
2022/09/27 07:03:31;;;;;;;4.00;3.17;;;12.30;99.90;;;;;;5105721;28;20485;-73
2022/09/27 07:06:00;;;;;;;6.10;3.20;;;12.30;99.90;;;;;;5104119;28;20444;-73
2022/09/27 07:08:27;;;;;;;3.83;3.43;;;12.30;99.90;;;;;;5103027;28;20453;-74
2022/09/27 07:10:55;;;;;;;3.43;3.13;;;12.30;99.90;;;;;;5103260;28;20521;-73
2022/09/27 07:13:22;;;;;;;10.00;4.03;;;12.30;99.90;;;;;;5101760;28;20457;-74
2022/09/27 07:15:49;;;;;;;3.57;3.27;;;12.30;99.90;;;;;;5103701;28;20856;-74
2022/09/27 07:18:18;;;;;;;4.93;3.80;;;12.30;99.90;;;;;;5105912;28;20453;-74
2022/09/27 07:20:44;;;;;;;3.63;3.33;;;12.30;99.90;;;;;;5106066;28;20453;-74
2022/09/27 07:23:13;;;;;;;3.80;3.40;;;12.40;99.90;;;;;;5103903;28;20813;-74
2022/09/27 07:25:41;;;;;;;3.60;3.30;;;12.40;99.90;;;;;;5113392;28;20509;-74
2022/09/27 07:28:12;;;;;;;3.50;2.97;;;12.50;99.90;;;;;;5112961;28;20537;-73
2022/09/27 07:30:40;;;;;;;5.13;3.50;;;12.40;99.90;;;;;;5112363;28;20468;-75
2022/09/27 07:33:07;;;;;;;4.00;3.30;;;12.40;99.90;;;;;;5112364;28;20462;-74
2022/09/27 07:35:38;;;;;;;3.50;3.20;;;12.40;99.90;;;;;;5109719;28;20458;-75
2022/09/27 07:38:07;;;;;;;3.33;3.00;;;12.40;99.90;;;;;;5109678;28;20442;-75
2022/09/27 07:40:34;;;;;;;4.37;3.43;;;12.40;99.90;;;;;;5110036;28;20450;-75
2022/09/27 07:43:01;;;;;;;5.03;3.50;;;12.40;99.90;;;;;;5113478;28;20465;-76
2022/09/27 07:45:31;;;;;;;5.60;3.97;;;12.40;99.90;;;;;;5113002;28;20480;-76
2022/09/27 07:47:58;;;;;;;5.40;4.37;;;12.30;99.90;;;;;;5112978;28;20442;-74
2022/09/27 07:50:27;;;;;;;4.77;3.13;;;12.30;99.90;;;;;;5113327;28;20445;-73
2022/09/27 07:52:56;;;;;;;3.97;3.57;;;12.30;99.90;;;;;;5110432;28;20479;-74
2022/09/27 07:55:23;;;;;;;6.23;3.80;;;12.30;99.90;;;;;;5107396;28;20453;-74
2022/09/27 07:57:50;;;;;;;3.90;3.43;;;12.40;99.90;;;;;;5109464;28;20484;-74
2022/09/27 08:00:20;;;;;;;4.00;3.47;;;12.40;99.90;;;;;;5111632;28;20548;-75
2022/09/27 08:02:53;;;;;;;4.27;2.80;;;12.40;99.90;;;;;;5108895;28;20453;-74
2022/09/27 08:05:20;;;;;;;8.00;3.70;;;12.40;99.90;;;;;;5107411;28;20460;-75
2022/09/27 08:07:47;;;;;;;4.27;3.43;;;12.40;99.90;;;;;;5106527;28;20517;-74
2022/09/27 08:10:16;;;;;;;5.00;3.80;;;12.40;99.90;;;;;;5107361;28;20507;-74
2022/09/27 08:12:45;;;;;;;4.57;3.70;;;12.50;99.90;;;;;;5109295;28;20486;-74
2022/09/27 08:15:12;;;;;;;7.70;5.30;;;12.50;99.90;;;;;;5113358;28;20487;-74
2022/09/27 08:17:39;;;;;;;4.77;2.70;;;12.50;99.90;;;;;;5111151;28;20504;-74
2022/09/27 08:20:07;;;;;;;2.40;2.20;;;12.50;99.90;;;;;;5108713;28;20477;-74
2022/09/27 08:22:39;;;;;;;3.30;3.00;;;12.40;99.90;;;;;;5107972;28;20453;-74
2022/09/27 08:25:07;;;;;;;3.50;2.67;;;12.50;99.90;;;;;;5104220;28;20503;-73
2022/09/27 08:27:35;;;;;;;4.17;2.90;;;12.50;99.90;;;;;;5104081;28;20453;-73
2022/09/27 08:30:03;;;;;;;3.07;2.77;;;12.50;99.90;;;;;;5102558;28;20454;-73
2022/09/27 08:32:31;;;;;;;4.10;2.97;;;12.50;99.90;;;;;;5099630;28;20457;-73
2022/09/27 08:35:01;;;;;;;3.87;3.10;;;12.50;99.90;;;;;;5097568;28;20846;-72
2022/09/27 08:37:28;;;;;;;3.20;2.70;;;12.50;99.90;;;;;;5095744;28;20542;-68
2022/09/27 08:40:01;;;;;;;4.70;2.77;;;12.60;99.90;;;;;;5096268;28;20538;-74
2022/09/27 08:43:06;;;;;;;3.10;2.80;;;12.60;99.90;;;;;;5096292;28;20448;-73
2022/09/27 08:45:42;;;;;;;3.23;2.87;;;12.60;99.90;;;;;;5097364;28;20445;-72
2022/09/27 08:48:14;;;;;;;4.53;2.40;;;12.60;99.90;;;;;;5096025;28;20445;-72
2022/09/27 08:50:44;;;;;;;5.23;4.67;;;12.60;99.90;;;;;;5095938;28;20732;-72
2022/09/27 08:53:21;;;;;;;6.90;3.60;;;12.60;99.90;;;;;;5095641;28;20522;-71
2022/09/27 08:55:50;;;;;;;4.10;3.47;;;12.60;99.90;;;;;;5095527;28;20452;-71
2022/09/27 08:58:25;;;;;;;3.40;2.73;;;12.70;99.90;;;;;;5095725;28;20477;-72
2022/09/27 09:00:54;;;;;;;3.53;3.23;;;12.70;99.90;;;;;;5095145;28;20483;-71
2022/09/27 09:03:25;;;;;;;3.17;2.87;;;12.70;99.90;;;;;;5095219;28;20520;-71
2022/09/27 09:06:05;;;;;;;3.57;3.17;;;12.70;99.90;;;;;;5095434;28;20454;-71
2022/09/27 09:08:39;;;;;;;2.80;2.60;;;12.70;99.90;;;;;;5095501;28;20520;-70
2022/09/27 09:14:20;;;;;;;3.33;3.03;;;12.70;99.90;;;;;;5095402;28;20516;-71
2022/09/27 09:16:55;;;;;;;3.73;3.30;;;12.70;99.90;;;;;;5095153;28;20508;-71
2022/09/27 09:19:46;;;;;;;3.60;3.30;;;12.80;99.90;;;;;;5094911;28;20441;-71
2022/09/27 09:22:30;;;;;;;6.13;3.30;;;12.90;99.90;;;;;;5095624;28;20514;-71
2022/09/27 09:25:15;;;;;;;3.80;3.50;;;12.90;99.90;;;;;;5095045;28;20496;-71
2022/09/27 09:27:50;;;;;;;3.87;3.57;;;12.90;99.90;;;;;;5094848;28;20437;-72
2022/09/27 09:30:23;;;;;;;3.93;3.30;;;12.90;99.90;;;;;;5094930;28;20437;-71
2022/09/27 09:33:06;;;;;;;4.97;3.27;;;12.90;99.90;;;;;;5094732;28;20438;-71
2022/09/27 09:35:39;;;;;;;3.50;3.20;;;13.00;99.90;;;;;;5094135;28;20903;-71
2022/09/27 09:38:12;;;;;;;2.90;2.57;;;13.00;99.90;;;;;;5094500;28;20963;-71
2022/09/27 09:40:42;;;;;;;3.67;3.37;;;13.10;99.90;;;;;;5094791;28;20506;-71
2022/09/27 09:43:16;;;;;;;3.20;2.90;;;13.10;99.90;;;;;;5094668;28;20866;-71
2022/09/27 09:45:48;;;;;;;4.03;3.37;;;13.10;99.90;;;;;;5094638;28;20506;-72
2022/09/27 09:48:21;;;;;;;3.30;3.00;;;13.20;99.90;;;;;;5094804;28;20773;-70
2022/09/27 09:50:51;;;;;;;4.00;3.60;;;13.40;99.90;;;;;;5094588;28;20438;-71
2022/09/27 09:53:21;;;;;;;3.80;3.40;;;13.50;99.90;;;;;;5094523;28;20526;-71
2022/09/27 09:55:53;;;;;;;3.90;3.60;;;13.50;99.90;;;;;;5095489;28;20805;-71
2022/09/27 09:58:26;;;;;;;3.60;3.07;;;13.60;99.90;;;;;;5094743;28;20567;-72
2022/09/27 10:00:59;;;;;;;3.70;3.40;;;13.60;99.90;;;;;;5094498;28;20499;-71
2022/09/27 10:03:26;;;;;;;3.83;3.10;;;13.60;99.90;;;;;;5094589;28;20953;-71
2022/09/27 10:05:53;;;;;;;5.10;3.80;;;13.70;99.90;;;;;;5094499;28;20499;-71
2022/09/27 10:08:23;;;;;;;3.80;3.50;;;13.70;99.90;;;;;;5095445;28;20526;-72
2022/09/27 10:10:50;;;;;;;3.60;3.30;;;13.80;99.90;;;;;;5096147;28;20457;-71
2022/09/27 10:13:19;;;;;;;3.33;2.93;;;13.70;99.90;;;;;;5095937;28;20544;-71
2022/09/27 10:15:54;;;;;;;3.60;3.30;;;13.80;99.90;;;;;;5094422;28;20453;-71
2022/09/27 10:18:25;;;;;;;3.00;2.80;;;13.80;99.90;;;;;;5094011;28;20461;-71
2022/09/27 10:20:56;;;;;;;2.93;2.73;;;13.80;99.90;;;;;;5094430;28;20441;-71
2022/09/27 10:23:24;;;;;;;3.70;3.40;;;13.90;99.90;;;;;;5094257;28;20490;-71
2022/09/27 10:25:55;;;;;;;3.30;3.00;;;14.00;99.90;;;;;;5094636;28;20454;-71
2022/09/27 10:28:36;;;;;;;3.17;2.97;;;14.20;99.90;;;;;;5094434;28;20433;-72
2022/09/27 10:31:05;;;;;;;3.63;3.33;;;14.40;99.90;;;;;;5095159;28;20441;-72
2022/09/27 10:33:34;;;;;;;3.27;3.00;;;14.40;99.90;;;;;;5094007;28;20463;-72
2022/09/27 10:36:02;;;;;;;6.20;3.80;;;14.40;99.90;;;;;;5094243;28;20906;-72
2022/09/27 10:38:31;;;;;;;6.60;4.27;;;14.40;99.90;;;;;;5093905;28;20484;-72
2022/09/27 10:41:15;;;;;;;3.67;3.30;;;14.30;99.90;;;;;;5095008;28;20457;-72
2022/09/27 10:43:42;;;;;;;3.70;3.40;;;14.20;99.90;;;;;;5094971;28;20445;-71
2022/09/27 10:46:25;;;;;;;3.70;3.40;;;14.10;99.90;;;;;;5095120;28;20767;-71
2022/09/27 10:49:18;;;;;;;3.97;3.07;;;14.10;99.90;;;;;;5097225;28;20430;-71
2022/09/27 10:51:46;;;;;;;4.27;3.87;;;14.10;99.90;;;;;;5099380;28;20442;-72
2022/09/27 10:54:22;;;;;;;4.50;3.53;;;14.20;99.90;;;;;;5097909;28;20445;-72
2022/09/27 10:56:57;;;;;;;4.27;3.40;;;14.20;99.90;;;;;;5097988;28;20534;-72
2022/09/27 10:59:25;;;;;;;3.70;3.23;;;14.10;99.90;;;;;;5098693;28;20870;-72
2022/09/27 11:01:52;;;;;;;3.53;3.23;;;14.20;99.90;;;;;;5098834;28;20453;-72
2022/09/27 11:04:26;;;;;;;3.80;3.50;;;14.20;99.90;;;;;;5097860;28;20484;-71
2022/09/27 11:07:08;;;;;;;7.40;3.83;;;14.20;99.90;;;;;;5097237;28;20506;-72
2022/09/27 11:09:47;;;;;;;5.17;3.50;;;14.20;99.90;;;;;;5098911;28;20426;-71
2022/09/27 11:12:17;;;;;;;3.60;3.30;;;14.20;99.90;;;;;;5098985;28;20517;-70
2022/09/27 11:14:47;;;;;;;3.43;3.13;;;14.10;99.90;;;;;;5097545;28;20449;-71
2022/09/27 11:17:20;;;;;;;4.00;3.70;;;14.00;99.90;;;;;;5097479;28;20500;-72
2022/09/27 11:20:14;;;;;;;3.77;3.47;;;14.00;99.90;;;;;;5100183;28;20438;-72
2022/09/27 11:23:14;;;;;;;4.00;3.70;;;13.80;99.90;;;;;;5094368;28;20493;-72
2022/09/27 11:25:46;;;;;;;6.73;4.17;;;13.70;99.90;;;;;;5097262;28;20879;-72
2022/09/27 11:28:26;;;;;;;5.47;4.63;;;13.60;99.90;;;;;;5097187;28;20491;-72
2022/09/27 11:31:03;;;;;;;6.97;5.03;;;13.50;99.90;;;;;;5097917;28;20469;-72
2022/09/27 11:33:53;;;;;;;4.77;4.33;;;13.50;99.90;;;;;;5098675;28;20438;-73
2022/09/27 11:36:34;;;;;;;4.10;3.80;;;13.50;99.90;;;;;;5097634;28;20456;-73
2022/09/27 11:39:07;;;;;;;4.23;3.73;;;13.50;99.90;;;;;;5098148;28;20523;-72
2022/09/27 11:41:57;;;;;;;4.20;3.10;;;13.30;99.90;;;;;;5098237;28;20504;-73
2022/09/27 11:44:51;;;;;;;4.20;3.47;;;13.20;99.90;;;;;;5097047;28;20890;-72
2022/09/27 11:47:26;;;;;;;4.33;3.50;;;13.10;99.90;;;;;;5097122;28;20438;-73
2022/09/27 11:50:17;;;;;;;4.13;3.80;;;12.90;99.90;;;;;;5097366;28;20452;-72
2022/09/27 11:52:57;;;;;;;6.33;4.57;;;12.90;99.90;;;;;;5096958;28;20438;-72
2022/09/27 11:55:35;;;;;;;6.67;4.60;;;12.80;99.90;;;;;;5096780;28;20502;-71
2022/09/27 11:58:08;;;;;;;1.77;1.53;;;12.80;99.90;;;;;;5096793;28;20855;-69
2022/09/27 12:00:45;;;;;;;1.50;1.20;;;12.40;99.90;;;;;;5096809;28;20564;-69
2022/09/27 12:03:45;;;;;;;2.33;1.30;;;12.00;99.90;;;;;;5096684;28;20526;-69
2022/09/27 12:06:17;;;;;;;2.77;1.40;;;11.60;99.90;;;;;;5096782;28;20878;-69
2022/09/27 12:09:01;;;;;;;1.40;1.20;;;11.30;99.90;;;;;;5096871;28;20434;-69
2022/09/27 12:11:34;;;;;;;1.63;1.37;;;11.00;99.90;;;;;;5095942;28;20495;-69
2022/09/27 12:14:04;;;;;;;1.60;1.10;;;10.90;99.90;;;;;;5099527;28;20496;-69
2022/09/27 12:16:32;;;;;;;3.60;1.50;;;10.90;99.90;;;;;;5097765;28;20459;-70
2022/09/27 12:19:01;;;;;;;4.40;1.47;;;10.90;99.90;;;;;;5096265;28;20487;-69
2022/09/27 12:21:31;;;;;;;2.97;1.60;;;10.80;99.90;;;;;;5096359;28;20464;-69
2022/09/27 12:24:02;;;;;;;2.40;2.03;;;10.80;99.90;;;;;;5096472;28;20452;-70
2022/09/27 12:26:34;;;;;;;1.60;1.30;;;10.80;99.90;;;;;;5095849;28;20913;-69
2022/09/27 12:29:10;;;;;;;2.33;1.80;;;10.80;99.90;;;;;;5096892;28;20906;-70
2022/09/27 12:31:43;;;;;;;4.87;2.00;;;10.90;99.90;;;;;;5088319;28;20451;-70
2022/09/27 12:34:15;;;;;;;4.87;2.30;;;10.90;99.90;;;;;;5095922;28;20438;-69
2022/09/27 12:36:47;;;;;;;3.47;2.90;;;11.00;99.90;;;;;;5095991;28;20441;-70
2022/09/27 12:39:21;;;;;;;3.20;2.53;;;11.00;99.90;;;;;;5095652;28;20493;-71
2022/09/27 12:41:59;;;;;;;7.97;6.10;;;11.10;99.90;;;;;;5096470;28;20452;-71
2022/09/27 12:44:28;;;;;;;6.03;5.33;;;11.20;99.90;;;;;;5095595;28;20824;-70
2022/09/27 12:47:04;;;;;;;5.70;5.00;;;11.40;99.90;;;;;;5095913;28;20500;-69
2022/09/27 12:49:40;;;;;;;7.50;6.67;;;11.50;99.90;;;;;;5095821;28;20438;-72
2022/09/27 12:52:12;;;;;;;6.70;5.90;;;11.70;99.90;;;;;;5095393;28;20444;-70
2022/09/27 12:55:04;;;;;;;4.47;4.00;;;12.00;99.90;;;;;;5095791;28;20521;-69
2022/09/27 12:57:43;;;;;;;4.30;3.90;;;12.30;99.90;;;;;;5095633;28;20465;-70
2022/09/27 13:00:15;;;;;;;7.00;5.83;;;12.40;99.90;;;;;;5095495;28;20448;-71
2022/09/27 13:03:14;;;;;;;5.80;4.57;;;12.40;99.90;;;;;;5096127;28;20469;-68
2022/09/27 13:06:13;;;;;;;5.77;4.80;;;12.40;99.90;;;;;;5087418;28;20468;-69
2022/09/27 13:09:16;;;;;;;8.97;4.00;;;12.30;99.90;;;;;;5095373;28;20495;-70
2022/09/27 13:11:51;;;;;;;3.53;2.87;;;12.40;99.90;;;;;;5094381;28;20492;-70
2022/09/27 13:14:21;;;;;;;5.30;4.30;;;12.40;99.90;;;;;;5095486;28;20448;-70
2022/09/27 13:16:50;;;;;;;3.67;3.23;;;12.50;99.90;;;;;;5095113;28;20463;-70
2022/09/27 13:19:41;;;;;;;5.07;2.70;;;12.60;99.90;;;;;;5095084;28;20553;-70
2022/09/27 13:22:09;;;;;;;2.57;2.37;;;12.70;99.90;;;;;;5094895;28;20442;-70